Time;durP1;ratioP1;P1;durP2;ratioP2;P2;SDS_P1;SDS_P2;PMS_P1;PMS_P2;Temp;Humidity;BMP_temperature;BMP_pressure;BME280_temperature;BME280_humidity;BME280_pressure;Samples;Min_cycle;Max_cycle;Signal;HPM_P1;HPM_P2
2023/09/01 00:04:02;;;;;;;19.00;15.60;;;;;;;11.78;80.76;100120.97;10483203;28;20048;-76
2023/09/01 00:09:05;;;;;;;18.92;16.10;;;;;;;11.70;81.10;100127.88;10486764;28;20411;-76
2023/09/01 00:14:10;;;;;;;17.88;15.70;;;;;;;11.67;81.23;100121.94;10489927;28;20716;-76
2023/09/01 00:19:13;;;;;;;20.88;15.93;;;;;;;11.62;81.23;100114.25;10488787;28;20056;-77
2023/09/01 00:24:16;;;;;;;18.67;16.40;;;;;;;11.60;81.36;100108.19;10486910;28;20036;-75
2023/09/01 00:29:20;;;;;;;18.25;15.63;;;;;;;11.62;81.45;100108.03;10481431;28;20347;-77
2023/09/01 00:34:23;;;;;;;20.20;16.40;;;;;;;11.66;81.45;100110.31;10489634;28;20037;-77
2023/09/01 00:39:27;;;;;;;19.52;15.57;;;;;;;11.73;81.28;100110.59;10479131;28;20051;-76
2023/09/01 00:44:31;;;;;;;18.48;16.48;;;;;;;11.76;81.28;100122.94;10485844;28;20123;-76
2023/09/01 00:49:36;;;;;;;22.25;16.67;;;;;;;11.73;81.22;100119.53;10487258;28;20042;-76
2023/09/01 00:54:39;;;;;;;21.90;16.42;;;;;;;11.76;81.29;100114.84;10483187;28;20043;-76
2023/09/01 00:59:43;;;;;;;20.67;15.05;;;;;;;11.75;81.35;100111.31;10487633;28;20499;-77
2023/09/01 01:04:46;;;;;;;18.83;14.73;;;;;;;11.77;81.31;100103.97;10488580;28;20403;-76
2023/09/01 01:09:58;;;;;;;19.27;15.18;;;;;;;11.78;81.12;100112.88;10486130;28;20048;-76
2023/09/01 01:15:09;;;;;;;;;;;;;;;11.74;81.20;100109.63;10481168;28;20048;-77
2023/09/01 01:20:32;;;;;;;17.25;14.50;;;;;;;11.71;81.04;100116.13;10487778;28;20011;-76
2023/09/01 01:25:36;;;;;;;18.80;16.15;;;;;;;11.64;81.27;100106.06;10485174;28;20037;-77
2023/09/01 01:30:39;;;;;;;20.55;16.45;;;;;;;11.63;81.50;100110.59;10485933;28;20059;-76
2023/09/01 01:35:52;;;;;;;26.42;18.30;;;;;;;11.68;81.25;100104.78;10478648;28;20049;-76
2023/09/01 01:41:15;;;;;;;21.17;16.40;;;;;;;11.69;81.33;100106.50;10488335;28;20059;-76
2023/09/01 01:46:20;;;;;;;21.02;16.15;;;;;;;11.71;81.24;100105.38;10495878;28;20414;-76
2023/09/01 01:51:23;;;;;;;16.58;14.82;;;;;;;11.63;81.12;100113.28;10493884;28;20051;-76
2023/09/01 01:56:28;;;;;;;22.33;16.77;;;;;;;11.61;81.17;100117.94;10511003;28;20049;-76
2023/09/01 02:01:31;;;;;;;17.85;14.93;;;;;;;11.61;80.88;100104.50;10495965;28;20152;-76
2023/09/01 02:06:34;;;;;;;20.67;15.30;;;;;;;11.62;80.94;100113.41;10495439;28;20127;-76
2023/09/01 02:11:38;;;;;;;19.35;15.73;;;;;;;11.52;81.01;100113.41;10495817;28;20131;-76
2023/09/01 02:16:41;;;;;;;20.25;15.40;;;;;;;11.38;81.17;100119.13;10492960;28;20124;-76
2023/09/01 02:21:45;;;;;;;20.15;15.90;;;;;;;11.36;81.40;100118.44;10487930;28;20040;-75
2023/09/01 02:26:49;;;;;;;21.38;16.67;;;;;;;11.34;81.36;100106.97;10489523;28;20535;-75
2023/09/01 02:31:53;;;;;;;19.35;15.50;;;;;;;11.32;81.49;100119.69;10495790;28;20040;-75
2023/09/01 02:36:56;;;;;;;20.95;15.27;;;;;;;11.31;81.60;100134.13;10493223;28;20044;-75
2023/09/01 02:42:01;;;;;;;21.00;15.13;;;;;;;11.24;82.01;100133.78;10492000;28;20057;-76
2023/09/01 02:47:04;;;;;;;18.98;16.27;;;;;;;11.29;82.23;100134.25;10490191;28;20226;-76
2023/09/01 02:52:07;;;;;;;19.48;16.13;;;;;;;11.35;82.04;100125.63;10495712;28;20040;-75
2023/09/01 02:57:11;;;;;;;25.80;16.05;;;;;;;11.34;81.91;100126.63;10491579;28;20048;-76
2023/09/01 03:02:14;;;;;;;20.95;16.13;;;;;;;11.33;81.89;100134.84;10490261;28;20064;-75
2023/09/01 03:07:17;;;;;;;22.17;15.77;;;;;;;11.32;81.87;100131.28;10488686;28;20041;-75
2023/09/01 03:12:21;;;;;;;25.15;15.32;;;;;;;11.31;81.88;100126.91;10491412;28;20036;-76
2023/09/01 03:17:24;;;;;;;22.33;15.90;;;;;;;11.30;81.84;100114.47;10489225;28;20101;-74
2023/09/01 03:22:27;;;;;;;18.70;16.02;;;;;;;11.26;81.88;100118.38;10490166;28;20047;-75
2023/09/01 03:27:32;;;;;;;22.42;15.48;;;;;;;11.25;82.09;100114.84;10505797;28;20110;-76
2023/09/01 03:32:35;;;;;;;21.27;15.13;;;;;;;11.25;82.11;100125.59;10506524;28;20089;-76
2023/09/01 03:37:38;;;;;;;20.50;15.50;;;;;;;11.18;82.09;100135.19;10486930;28;20129;-76
2023/09/01 03:42:42;;;;;;;19.05;14.90;;;;;;;11.14;82.50;100139.16;10486335;28;20040;-76
2023/09/01 03:47:45;;;;;;;20.85;16.02;;;;;;;11.13;82.62;100132.03;10489999;28;20082;-76
2023/09/01 03:52:49;;;;;;;21.23;15.55;;;;;;;11.07;82.71;100132.56;10483471;28;20435;-76
2023/09/01 03:57:53;;;;;;;24.52;15.98;;;;;;;11.08;82.77;100119.97;10490351;28;20494;-76
2023/09/01 04:02:56;;;;;;;21.98;15.00;;;;;;;11.05;82.78;100127.34;10486732;28;20048;-76
2023/09/01 04:07:59;;;;;;;22.30;15.70;;;;;;;11.02;82.73;100129.41;10487585;28;20584;-76
2023/09/01 04:13:04;;;;;;;21.85;14.68;;;;;;;10.97;82.85;100135.22;10488865;28;20028;-76
2023/09/01 04:18:06;;;;;;;20.42;15.70;;;;;;;10.93;83.03;100130.22;10488050;28;20053;-76
2023/09/01 04:23:09;;;;;;;23.38;14.90;;;;;;;10.97;82.92;100126.28;10498841;28;20044;-76
2023/09/01 04:28:15;;;;;;;16.67;14.07;;;;;;;10.96;82.99;100132.66;10517707;28;20055;-75
2023/09/01 04:33:18;;;;;;;20.58;13.48;;;;;;;10.97;82.79;100139.72;10495879;28;20067;-76
2023/09/01 04:38:22;;;;;;;17.75;13.43;;;;;;;10.91;82.88;100143.78;10496482;28;20041;-76
2023/09/01 04:43:28;;;;;;;15.25;13.18;;;;;;;10.91;82.69;100138.41;10508155;28;20057;-77
2023/09/01 04:48:31;;;;;;;22.33;14.95;;;;;;;10.86;82.70;100147.84;10501211;28;20044;-76
2023/09/01 04:53:35;;;;;;;20.15;14.82;;;;;;;10.80;83.05;100144.69;10501507;28;20056;-76
2023/09/01 04:58:40;;;;;;;17.52;13.82;;;;;;;10.81;83.13;100140.19;10504502;28;20503;-76
2023/09/01 05:03:43;;;;;;;18.35;14.32;;;;;;;10.80;82.97;100142.00;10509657;28;20048;-76
2023/09/01 05:08:46;;;;;;;10.57;9.25;;;;;;;10.82;82.93;100149.97;10513524;28;20052;-76
2023/09/01 05:13:51;;;;;;;12.10;9.00;;;;;;;11.59;83.85;100137.91;10484391;28;20048;-75
2023/09/01 05:18:54;;;;;;;9.18;7.35;;;;;;;12.19;81.69;100143.25;10497004;28;20037;-77
2023/09/01 05:23:57;;;;;;;8.65;5.72;;;;;;;12.44;79.67;100150.81;10493192;28;20106;-76
2023/09/01 05:29:02;;;;;;;12.52;8.65;;;;;;;12.36;77.77;100147.97;10495467;28;20542;-75
2023/09/01 05:34:06;;;;;;;14.25;9.65;;;;;;;12.10;77.33;100145.81;10495993;28;20419;-76
2023/09/01 05:39:09;;;;;;;10.70;8.30;;;;;;;12.36;77.60;100150.66;10504370;28;20041;-75
2023/09/01 05:44:14;;;;;;;9.43;8.43;;;;;;;12.25;76.53;100164.22;10495519;28;20068;-76
2023/09/01 05:49:17;;;;;;;11.05;8.40;;;;;;;12.26;77.08;100157.84;10499950;28;20049;-76
2023/09/01 05:54:21;;;;;;;12.48;7.78;;;;;;;12.57;76.67;100154.06;10498056;28;20045;-76
2023/09/01 06:04:56;;;;;;;15.85;9.77;;;;;;;12.49;75.62;100167.41;10439247;23;20052;-77
2023/09/01 06:09:59;;;;;;;14.15;10.35;;;;;;;12.34;76.39;100176.88;10278433;28;20426;-75
2023/09/01 06:15:02;;;;;;;17.25;10.38;;;;;;;12.37;76.98;100176.63;10258776;28;20051;-74
2023/09/01 06:20:08;;;;;;;12.23;9.80;;;;;;;12.44;77.15;100176.91;10274370;28;20089;-74
2023/09/01 06:25:14;;;;;;;12.52;10.35;;;;;;;12.41;77.53;100175.34;10273445;28;20046;-75
2023/09/01 06:30:16;;;;;;;16.48;11.10;;;;;;;12.56;77.85;100175.75;10274495;28;20691;-75
2023/09/01 06:35:21;;;;;;;18.58;11.52;;;;;;;12.59;77.68;100180.88;10280689;28;20048;-76
2023/09/01 06:40:23;;;;;;;17.35;10.82;;;;;;;13.00;77.30;100193.16;10275238;28;20042;-75
2023/09/01 06:45:26;;;;;;;14.60;10.20;;;;;;;13.59;75.09;100183.06;10278463;28;20093;-75
2023/09/01 06:50:31;;;;;;;12.20;8.80;;;;;;;13.82;73.12;100171.88;10280216;28;20129;-75
2023/09/01 06:55:33;;;;;;;16.10;8.77;;;;;;;14.08;72.80;100172.84;10281939;28;20043;-74
2023/09/01 07:00:36;;;;;;;14.25;9.60;;;;;;;14.39;72.59;100177.91;10273945;28;20043;-75
2023/09/01 07:05:40;;;;;;;11.10;8.10;;;;;;;14.73;71.89;100185.34;10275617;28;20091;-74
2023/09/01 07:10:43;;;;;;;10.20;8.10;;;;;;;14.87;70.78;100187.47;10274308;28;20407;-73
2023/09/01 07:15:50;;;;;;;10.63;8.05;;;;;;;15.13;70.51;100187.47;10272745;28;20043;-75
2023/09/01 07:20:58;;;;;;;11.60;7.50;;;;;;;15.11;70.08;100189.53;10273970;28;20093;-74
2023/09/01 07:26:01;;;;;;;9.82;7.35;;;;;;;15.33;70.12;100171.91;10271061;28;20050;-75
2023/09/01 07:31:10;;;;;;;13.25;7.80;;;;;;;16.09;68.63;100176.44;10271991;28;20051;-74
2023/09/01 07:36:15;;;;;;;10.93;7.43;;;;;;;16.25;66.39;100163.97;10273462;28;20082;-77
2023/09/01 07:41:18;;;;;;;10.57;6.05;;;;;;;16.88;66.04;100162.50;10255488;28;20047;-75
2023/09/01 07:46:21;;;;;;;12.52;7.43;;;;;;;16.30;65.69;100169.78;10272024;28;20110;-75
2023/09/01 07:51:25;;;;;;;12.25;7.30;;;;;;;16.43;65.97;100167.41;10268841;28;20043;-75
2023/09/01 07:56:28;;;;;;;13.82;8.15;;;;;;;16.52;66.22;100176.41;10269288;28;20081;-75
2023/09/01 08:01:31;;;;;;;12.07;6.70;;;;;;;16.51;65.90;100178.28;10269216;28;20043;-76
2023/09/01 08:06:35;;;;;;;9.30;6.35;;;;;;;16.94;65.21;100178.94;10286843;28;20034;-76
2023/09/01 08:11:38;;;;;;;14.07;6.22;;;;;;;17.49;63.06;100169.19;10282777;28;20129;-76
2023/09/01 08:16:41;;;;;;;9.63;6.90;;;;;;;17.12;62.93;100175.19;10272403;28;20035;-76
2023/09/01 08:21:45;;;;;;;10.68;6.60;;;;;;;17.44;63.16;100177.00;10267706;28;20090;-76
2023/09/01 08:26:48;;;;;;;9.27;6.00;;;;;;;17.70;61.64;100164.03;10269411;28;20046;-76
2023/09/01 08:31:51;;;;;;;12.95;5.75;;;;;;;19.21;58.08;100163.47;10265145;28;20047;-76
2023/09/01 08:36:55;;;;;;;9.45;5.60;;;;;;;20.96;54.43;100155.28;10267620;28;20043;-76
2023/09/01 08:41:58;;;;;;;11.68;6.22;;;;;;;20.63;52.20;100167.81;10270253;28;20051;-76
2023/09/01 08:47:02;;;;;;;12.27;6.28;;;;;;;19.43;54.44;100167.16;10269210;28;20506;-75
2023/09/01 08:52:07;;;;;;;12.82;5.30;;;;;;;19.94;54.04;100155.50;10267666;28;20438;-75
2023/09/01 08:57:09;;;;;;;10.18;6.03;;;;;;;19.78;53.54;100159.28;10268444;28;20038;-75
2023/09/01 09:02:12;;;;;;;12.35;7.10;;;;;;;19.57;54.16;100167.38;10269228;28;20043;-76
2023/09/01 09:07:18;;;;;;;11.10;5.63;;;;;;;19.32;55.56;100156.75;10270867;28;20039;-76
2023/09/01 09:12:22;;;;;;;15.35;6.25;;;;;;;19.07;55.92;100175.22;10269919;28;20046;-76
2023/09/01 09:17:42;;;;;;;9.05;5.70;;;;;;;18.97;57.35;100171.91;10270323;28;20463;-76
2023/09/01 09:22:54;;;;;;;12.60;6.22;;;;;;;18.75;57.95;100163.53;10272141;28;20049;-75
2023/09/01 09:27:58;;;;;;;13.10;5.60;;;;;;;18.76;56.39;100164.41;10272159;28;20075;-76
2023/09/01 09:33:03;;;;;;;12.40;5.97;;;;;;;19.30;56.28;100168.84;10271568;28;20070;-76
2023/09/01 09:38:07;;;;;;;11.90;5.82;;;;;;;19.54;55.35;100165.84;10273830;28;20050;-76
2023/09/01 09:43:10;;;;;;;14.00;5.45;;;;;;;19.35;53.63;100167.25;10271523;28;20043;-75
2023/09/01 09:48:15;;;;;;;9.63;5.95;;;;;;;19.15;55.12;100163.41;10273510;28;20130;-76
2023/09/01 09:53:22;;;;;;;13.02;6.60;;;;;;;19.08;55.90;100174.16;10272105;28;20053;-75
2023/09/01 09:58:34;;;;;;;12.88;6.13;;;;;;;19.14;55.94;100181.63;10273603;28;20039;-75
2023/09/01 10:03:37;;;;;;;10.85;5.93;;;;;;;19.20;56.27;100177.31;10275490;28;20788;-74
2023/09/01 10:08:43;;;;;;;7.85;4.32;;;;;;;18.92;56.50;100180.59;10292993;28;20035;-76
2023/09/01 10:13:46;;;;;;;10.23;4.70;;;;;;;18.88;57.31;100165.69;10285040;28;20058;-76
2023/09/01 10:18:50;;;;;;;9.98;4.05;;;;;;;19.29;56.23;100175.34;10283281;28;20591;-75
2023/09/01 10:23:54;;;;;;;9.38;3.35;;;;;;;19.23;56.42;100185.94;10282982;28;20674;-75
2023/09/01 10:28:59;;;;;;;7.15;3.63;;;;;;;19.34;55.88;100181.91;10281704;28;20047;-75
2023/09/01 10:34:07;;;;;;;6.38;3.78;;;;;;;19.14;57.02;100194.34;10281770;28;20048;-75
2023/09/01 10:39:30;;;;;;;6.07;3.30;;;;;;;18.74;57.19;100186.34;10282483;28;20039;-75
2023/09/01 10:45:06;;;;;;;;;;;;;;;18.61;58.73;100183.38;10281043;28;20050;-75
2023/09/01 10:50:12;;;;;;;9.05;3.45;;;;;;;18.45;59.81;100178.06;10278836;28;19923;-75
2023/09/01 10:55:16;;;;;;;5.72;3.10;;;;;;;18.41;59.48;100165.88;10282216;28;20047;-74
2023/09/01 11:00:27;;;;;;;5.22;3.45;;;;;;;18.50;60.29;100173.78;10281436;28;20050;-76
2023/09/01 11:05:39;;;;;;;5.47;3.60;;;;;;;18.30;61.15;100169.84;10280513;28;20434;-74
2023/09/01 11:10:44;;;;;;;5.63;3.33;;;;;;;18.45;61.61;100180.78;10281800;28;20051;-76
2023/09/01 11:15:48;;;;;;;4.40;2.90;;;;;;;18.54;60.93;100182.41;10282491;28;20047;-76
2023/09/01 11:20:54;;;;;;;6.85;3.10;;;;;;;18.72;60.90;100182.97;10280488;28;20391;-76
2023/09/01 11:25:58;;;;;;;4.22;2.78;;;;;;;18.76;60.27;100181.59;10276872;28;20046;-75
2023/09/01 11:31:03;;;;;;;4.70;3.22;;;;;;;18.99;61.05;100173.41;10293746;28;20051;-76
2023/09/01 11:36:09;;;;;;;5.45;3.10;;;;;;;18.85;61.02;100174.22;10269852;28;20051;-75
2023/09/01 11:41:16;;;;;;;6.30;3.70;;;;;;;18.90;61.16;100171.78;10280528;28;20421;-76
2023/09/01 11:46:30;;;;;;;4.22;3.20;;;;;;;19.19;60.94;100172.88;10282028;28;20038;-76
2023/09/01 11:51:35;;;;;;;3.72;3.05;;;;;;;19.51;60.97;100162.66;10279123;28;20086;-76
2023/09/01 11:56:39;;;;;;;3.28;2.60;;;;;;;19.35;60.88;100161.81;10279313;28;20405;-76
2023/09/01 12:01:42;;;;;;;2.55;2.10;;;;;;;19.26;61.11;100167.53;10278737;28;20038;-76
2023/09/01 12:06:46;;;;;;;2.92;2.17;;;;;;;19.30;61.54;100172.41;10287871;28;20118;-76
2023/09/01 12:11:54;;;;;;;2.30;2.10;;;;;;;19.33;62.17;100161.13;10287832;28;20074;-76
2023/09/01 12:16:59;;;;;;;2.83;2.15;;;;;;;19.75;60.82;100153.38;10280538;28;20061;-76
2023/09/01 12:22:02;;;;;;;4.10;2.53;;;;;;;19.27;61.27;100156.44;10275597;28;20039;-76
2023/09/01 12:27:06;;;;;;;3.22;2.28;;;;;;;19.05;62.08;100149.19;10279264;28;20540;-76
2023/09/01 12:32:09;;;;;;;4.65;3.30;;;;;;;19.13;62.36;100160.84;10278422;28;20069;-76
2023/09/01 12:37:12;;;;;;;2.83;2.08;;;;;;;19.31;62.16;100163.22;10274161;28;20046;-76
2023/09/01 12:42:17;;;;;;;3.08;2.20;;;;;;;19.08;62.62;100159.72;10255858;28;20482;-76
2023/09/01 12:47:19;;;;;;;4.03;2.05;;;;;;;19.22;62.51;100165.16;10276722;28;20531;-76
2023/09/01 12:52:22;;;;;;;5.03;2.60;;;;;;;19.16;63.07;100171.38;10277035;28;20059;-76
2023/09/01 12:57:27;;;;;;;2.92;1.88;;;;;;;18.91;63.22;100170.75;10278400;28;20043;-75
2023/09/01 13:02:29;;;;;;;3.55;2.10;;;;;;;18.93;63.69;100170.59;10275205;28;20043;-76
2023/09/01 13:07:32;;;;;;;5.03;2.35;;;;;;;19.09;63.51;100175.88;10271029;28;20097;-75
2023/09/01 13:12:37;;;;;;;2.20;2.00;;;;;;;19.11;63.26;100165.63;10271258;28;20039;-75
2023/09/01 13:17:41;;;;;;;3.50;1.70;;;;;;;19.14;63.19;100167.13;10274479;28;20046;-75
2023/09/01 13:22:44;;;;;;;1.90;1.77;;;;;;;19.14;63.16;100164.41;10253362;28;20074;-75
2023/09/01 13:27:50;;;;;;;2.50;1.80;;;;;;;19.35;63.30;100167.25;10271335;28;20047;-76
2023/09/01 13:32:53;;;;;;;2.15;1.83;;;;;;;19.15;63.67;100166.13;10269692;28;20046;-75
2023/09/01 13:37:56;;;;;;;3.53;1.90;;;;;;;18.72;64.60;100174.78;10274145;28;20039;-75
2023/09/01 13:43:01;;;;;;;2.15;1.80;;;;;;;18.61;65.40;100169.78;10282300;28;20470;-75
2023/09/01 13:48:04;;;;;;;2.28;2.17;;;;;;;18.68;65.91;100161.75;10279542;28;20035;-75
2023/09/01 13:53:07;;;;;;;3.00;1.90;;;;;;;18.46;66.86;100168.91;10278099;28;20152;-75
2023/09/01 13:58:11;;;;;;;2.22;1.48;;;;;;;18.19;68.04;100171.13;10272635;28;20046;-75
2023/09/01 14:03:14;;;;;;;1.80;1.70;;;;;;;18.19;68.48;100175.72;10274858;28;20126;-76
2023/09/01 14:08:17;;;;;;;1.38;1.27;;;;;;;18.24;68.42;100170.56;10279340;28;20465;-75
2023/09/01 14:13:22;;;;;;;1.63;1.52;;;;;;;18.21;68.67;100170.91;10275599;28;20097;-75
2023/09/01 14:18:26;;;;;;;2.13;1.70;;;;;;;18.25;69.28;100172.25;10275743;28;20383;-75
2023/09/01 14:23:29;;;;;;;1.88;1.63;;;;;;;18.22;69.83;100169.91;10275769;28;20054;-75
2023/09/01 14:28:34;;;;;;;3.05;1.33;;;;;;;18.23;69.36;100164.28;10280998;28;20387;-75
2023/09/01 14:33:37;;;;;;;1.63;1.35;;;;;;;18.33;69.04;100164.91;10280568;28;20552;-75
2023/09/01 14:38:50;;;;;;;1.20;1.10;;;;;;;18.25;72.31;100170.38;10275462;28;20050;-76
2023/09/01 14:43:54;;;;;;;2.45;1.45;;;;;;;18.06;74.99;100196.16;10273728;28;20079;-76
2023/09/01 14:48:57;;;;;;;2.38;1.45;;;;;;;17.91;77.38;100187.88;10274259;28;20047;-75
2023/09/01 14:54:00;;;;;;;3.15;1.10;;;;;;;17.93;79.93;100191.25;10276045;28;20111;-76
2023/09/01 14:59:04;;;;;;;1.63;1.38;;;;;;;17.95;81.47;100196.50;10276864;28;20106;-76
2023/09/01 15:04:07;;;;;;;1.25;1.20;;;;;;;18.01;80.07;100184.97;10276427;28;20510;-77
2023/09/01 15:09:10;;;;;;;1.50;1.40;;;;;;;17.93;81.42;100193.97;10272139;28;20047;-76
2023/09/01 15:14:15;;;;;;;2.65;1.30;;;;;;;17.69;82.63;100194.94;10273941;28;20058;-76
2023/09/01 15:19:18;;;;;;;1.60;1.50;;;;;;;17.63;83.44;100194.78;10275605;28;20034;-76
2023/09/01 15:24:21;;;;;;;3.08;1.30;;;;;;;17.79;84.81;100202.03;10274780;28;20042;-75
2023/09/01 15:29:25;;;;;;;1.42;1.33;;;;;;;17.65;84.79;100209.88;10273523;28;20047;-76
2023/09/01 15:34:30;;;;;;;1.67;1.30;;;;;;;17.67;86.50;100209.72;10270527;28;20046;-76
2023/09/01 15:39:33;;;;;;;4.03;1.50;;;;;;;17.86;87.57;100201.16;10258561;28;20047;-76
2023/09/01 15:44:37;;;;;;;1.50;1.33;;;;;;;18.30;88.77;100197.88;10274577;28;20043;-76
2023/09/01 15:49:40;;;;;;;1.55;1.30;;;;;;;18.55;86.25;100208.59;10271612;28;20038;-76
2023/09/01 15:54:43;;;;;;;2.28;1.75;;;;;;;18.47;85.08;100209.50;10268342;28;20050;-76
2023/09/01 15:59:47;;;;;;;2.00;1.80;;;;;;;18.55;85.54;100212.16;10266523;28;20039;-76
2023/09/01 16:04:50;;;;;;;2.83;2.63;;;;;;;18.62;84.79;100208.72;10271878;28;20051;-76
2023/09/01 16:09:53;;;;;;;4.38;2.58;;;;;;;18.58;83.81;100206.34;10270557;28;20046;-75
2023/09/01 16:14:58;;;;;;;3.83;2.70;;;;;;;18.62;83.13;100212.28;10265171;28;20679;-76
2023/09/01 16:20:00;;;;;;;2.97;2.42;;;;;;;18.83;81.52;100200.75;10271007;28;20646;-75
2023/09/01 16:25:04;;;;;;;2.58;2.25;;;;;;;19.07;81.01;100210.59;10276261;28;20047;-76
2023/09/01 16:30:09;;;;;;;2.55;2.10;;;;;;;18.82;78.20;100217.28;10266627;28;20070;-76
2023/09/01 16:35:15;;;;;;;2.63;2.20;;;;;;;18.60;77.70;100222.50;10268976;28;20054;-76
2023/09/01 16:40:26;;;;;;;2.83;2.50;;;;;;;18.48;77.59;100227.50;10260885;28;20039;-76
2023/09/01 16:45:30;;;;;;;3.00;2.67;;;;;;;18.39;77.39;100227.75;10264590;28;20122;-76
2023/09/01 16:50:34;;;;;;;2.90;1.98;;;;;;;18.36;77.31;100235.22;10265518;28;20046;-76
2023/09/01 16:55:36;;;;;;;2.55;2.28;;;;;;;18.26;76.96;100242.75;10268892;28;20039;-76
2023/09/01 17:00:41;;;;;;;2.67;2.00;;;;;;;18.13;77.41;100246.06;10267061;28;20042;-76
2023/09/01 17:05:45;;;;;;;2.38;2.13;;;;;;;18.07;78.13;100240.47;10262823;28;20050;-76
2023/09/01 17:10:49;;;;;;;2.45;2.20;;;;;;;17.95;77.47;100248.13;10262216;28;20521;-76
2023/09/01 17:15:53;;;;;;;2.22;2.03;;;;;;;17.93;77.70;100259.19;10260732;28;20166;-76
2023/09/01 17:20:57;;;;;;;3.22;2.00;;;;;;;17.84;77.86;100265.66;10258485;28;20038;-76
2023/09/01 17:26:01;;;;;;;3.88;1.77;;;;;;;17.69;78.65;100275.56;10261391;28;20058;-75
2023/09/01 17:31:05;;;;;;;2.72;1.88;;;;;;;17.62;79.10;100280.84;10265336;28;20051;-75
2023/09/01 17:36:08;;;;;;;3.65;2.03;;;;;;;17.53;79.36;100278.31;10261786;28;20105;-75
2023/09/01 17:41:12;;;;;;;2.28;2.08;;;;;;;17.47;79.41;100279.88;10259498;28;20126;-75
2023/09/01 17:46:16;;;;;;;2.20;2.00;;;;;;;17.43;79.37;100294.78;10260664;28;20052;-75
2023/09/01 17:51:19;;;;;;;2.20;2.00;;;;;;;17.39;79.69;100304.31;10252220;28;20130;-74
2023/09/01 17:56:22;;;;;;;3.08;2.22;;;;;;;17.30;79.75;100308.88;10256615;28;20049;-76
2023/09/01 18:01:26;;;;;;;2.63;2.42;;;;;;;17.24;80.12;100309.56;10255361;28;20047;-76
2023/09/01 18:06:30;;;;;;;3.20;2.00;;;;;;;17.20;80.52;100313.66;10257035;28;20039;-76
2023/09/01 18:11:35;;;;;;;2.33;1.88;;;;;;;17.12;80.96;100314.44;10258414;28;20051;-76
2023/09/01 18:16:39;;;;;;;2.40;2.20;;;;;;;17.07;81.29;100318.69;10248079;28;20050;-76
2023/09/01 18:21:42;;;;;;;3.22;2.30;;;;;;;17.04;81.46;100323.44;10251496;28;20062;-76
2023/09/01 18:26:45;;;;;;;4.28;2.50;;;;;;;17.02;81.74;100335.47;10257240;28;20417;-76
2023/09/01 18:31:51;;;;;;;2.60;2.40;;;;;;;16.98;81.99;100343.09;10260620;28;20043;-76
2023/09/01 18:36:55;;;;;;;3.22;2.22;;;;;;;16.95;82.33;100345.28;10258159;28;20561;-74
2023/09/01 18:41:58;;;;;;;2.90;2.70;;;;;;;16.94;82.30;100358.00;10255082;28;20047;-75
2023/09/01 18:47:04;;;;;;;2.92;2.67;;;;;;;16.91;82.70;100363.75;10262085;28;20490;-75
2023/09/01 18:52:07;;;;;;;4.30;2.35;;;;;;;16.86;82.61;100370.69;10251030;28;20050;-77
2023/09/01 18:57:13;;;;;;;2.50;2.30;;;;;;;16.80;82.74;100374.94;10253893;28;20047;-76
2023/09/01 19:02:35;;;;;;;2.72;2.40;;;;;;;16.72;82.25;100375.75;10251898;28;20047;-74
2023/09/01 19:07:37;;;;;;;2.67;2.47;;;;;;;16.72;82.46;100391.19;10252243;28;20058;-76
2023/09/01 19:12:41;;;;;;;4.32;2.42;;;;;;;16.77;82.31;100402.38;10252830;28;20051;-76
2023/09/01 19:17:45;;;;;;;3.17;2.10;;;;;;;16.75;82.12;100407.13;10266946;28;20047;-75
2023/09/01 19:22:48;;;;;;;2.95;1.88;;;;;;;16.64;82.31;100412.84;10262408;28;20678;-75
2023/09/01 19:27:51;;;;;;;2.50;2.30;;;;;;;16.68;82.45;100404.22;10255847;28;20081;-75
2023/09/01 19:33:15;;;;;;;5.70;2.20;;;;;;;16.69;82.47;100413.19;10253757;28;20039;-75
2023/09/01 19:38:20;;;;;;;3.33;2.00;;;;;;;16.65;82.36;100406.38;10261216;28;20035;-75
2023/09/01 19:43:25;;;;;;;2.63;1.98;;;;;;;16.68;82.40;100417.78;10267775;28;20472;-75
2023/09/01 19:48:32;;;;;;;3.38;2.10;;;;;;;16.67;82.29;100405.22;10261053;28;20043;-75
2023/09/01 19:53:35;;;;;;;3.40;2.70;;;;;;;16.64;82.25;100418.25;10263131;28;20051;-76
2023/09/01 19:58:42;;;;;;;3.05;2.83;;;;;;;16.64;82.08;100431.81;10244450;28;20680;-75
2023/09/01 20:03:47;;;;;;;3.40;2.42;;;;;;;16.63;82.27;100428.25;10254782;28;20078;-75
2023/09/01 20:08:50;;;;;;;2.50;2.30;;;;;;;16.64;82.05;100429.97;10244402;28;20050;-76
2023/09/01 20:13:54;;;;;;;4.63;2.45;;;;;;;16.63;82.05;100435.56;10265500;28;20059;-76
2023/09/01 20:19:00;;;;;;;2.92;2.60;;;;;;;16.52;81.99;100442.97;10262325;28;20045;-76
2023/09/01 20:24:03;;;;;;;3.70;2.30;;;;;;;16.39;82.10;100447.97;10264280;28;20054;-78
2023/09/01 20:29:08;;;;;;;2.65;2.45;;;;;;;16.37;82.56;100439.13;10264165;28;20053;-76
2023/09/01 20:34:12;;;;;;;4.82;2.58;;;;;;;16.37;82.78;100452.69;10263919;28;20050;-76
2023/09/01 20:39:15;;;;;;;2.88;2.67;;;;;;;16.29;82.75;100458.94;10266440;28;20046;-76
2023/09/01 20:44:18;;;;;;;2.80;2.47;;;;;;;16.20;82.94;100467.13;10264720;28;20529;-76
2023/09/01 20:49:23;;;;;;;5.03;3.42;;;;;;;16.00;83.15;100471.91;10262084;28;20035;-76
2023/09/01 20:54:25;;;;;;;3.35;2.75;;;;;;;15.89;83.85;100476.56;10266112;28;20094;-75
2023/09/01 20:59:29;;;;;;;3.80;3.42;;;;;;;15.94;83.73;100476.09;10268042;28;20039;-75
2023/09/01 21:04:33;;;;;;;3.67;3.30;;;;;;;15.91;83.84;100479.13;10266846;28;20557;-75
2023/09/01 21:09:36;;;;;;;3.78;3.35;;;;;;;15.88;84.33;100482.16;10266787;28;20043;-76
2023/09/01 21:14:38;;;;;;;4.07;3.75;;;;;;;15.92;84.23;100483.53;10262335;28;20043;-76
2023/09/01 21:19:42;;;;;;;8.73;4.50;;;;;;;16.00;84.04;100491.72;10268695;28;20039;-76
2023/09/01 21:24:45;;;;;;;4.80;4.40;;;;;;;16.07;83.92;100481.97;10269344;28;20426;-76
2023/09/01 21:29:51;;;;;;;3.88;3.33;;;;;;;16.07;83.92;100486.50;10267822;28;20043;-75
2023/09/01 21:34:55;;;;;;;4.60;2.95;;;;;;;16.01;83.93;100489.84;10266503;28;20057;-75
2023/09/01 21:39:58;;;;;;;5.55;3.58;;;;;;;15.81;83.88;100510.84;10265551;28;20043;-75
2023/09/01 21:45:01;;;;;;;4.38;3.83;;;;;;;15.38;86.28;100520.56;10269827;28;20047;-76
2023/09/01 21:50:06;;;;;;;3.95;3.65;;;;;;;15.41;85.93;100522.97;10269633;28;20046;-75
2023/09/01 21:55:09;;;;;;;4.78;3.92;;;;;;;15.43;86.02;100523.66;10267939;28;20040;-76
2023/09/01 22:00:13;;;;;;;4.82;4.40;;;;;;;15.44;85.94;100525.34;10276578;28;20469;-75
2023/09/01 22:05:17;;;;;;;4.88;4.20;;;;;;;15.40;85.83;100526.69;10273658;28;20050;-75
2023/09/01 22:10:20;;;;;;;5.90;4.30;;;;;;;15.34;85.80;100530.84;10275550;28;20506;-75
2023/09/01 22:15:23;;;;;;;7.10;6.07;;;;;;;15.25;85.51;100531.75;10277970;28;20447;-75
2023/09/01 22:20:27;;;;;;;6.25;5.07;;;;;;;15.16;86.26;100530.75;10277115;28;20429;-76
2023/09/01 22:25:30;;;;;;;5.95;4.72;;;;;;;15.14;86.13;100534.63;10277522;28;20145;-76
2023/09/01 22:30:33;;;;;;;6.20;4.72;;;;;;;15.05;85.81;100534.53;10273355;28;20035;-75
2023/09/01 22:35:37;;;;;;;5.13;4.72;;;;;;;15.02;86.05;100544.78;10275601;28;20043;-75
2023/09/01 22:40:40;;;;;;;5.40;4.63;;;;;;;14.95;85.75;100539.16;10275693;28;20406;-75
2023/09/01 22:45:43;;;;;;;6.18;5.57;;;;;;;14.90;86.21;100548.72;10277014;28;20054;-76
2023/09/01 22:50:47;;;;;;;6.57;5.85;;;;;;;14.82;86.01;100547.59;10275309;28;20039;-75
2023/09/01 22:55:50;;;;;;;6.70;5.85;;;;;;;14.84;86.57;100560.97;10273455;28;20552;-75
2023/09/01 23:00:53;;;;;;;7.82;6.78;;;;;;;14.82;86.41;100557.56;10274340;28;20421;-75
2023/09/01 23:05:57;;;;;;;6.82;5.82;;;;;;;14.77;86.71;100559.84;10277597;28;20039;-76
2023/09/01 23:11:00;;;;;;;6.45;5.80;;;;;;;14.76;86.26;100552.75;10277318;28;20043;-75
2023/09/01 23:16:04;;;;;;;5.60;4.88;;;;;;;14.72;86.26;100548.63;10275390;28;20051;-76